sensor_id;sensor_type;location;lat;lon;timestamp;pressure;altitude;pressure_sealevel;temperature;humidity
16544;BME280;8384;47.996;7.786;2022-07-29T00:00:17;98557.69;;;19.93;75.70
16544;BME280;8384;47.996;7.786;2022-07-29T00:02:43;98571.69;;;19.97;75.88
16544;BME280;8384;47.996;7.786;2022-07-29T00:05:08;98576.75;;;20.03;75.35
16544;BME280;8384;47.996;7.786;2022-07-29T00:07:34;98572.03;;;19.95;75.43
16544;BME280;8384;47.996;7.786;2022-07-29T00:10:00;98571.38;;;19.89;75.66
16544;BME280;8384;47.996;7.786;2022-07-29T00:12:25;98562.41;;;19.75;76.43
16544;BME280;8384;47.996;7.786;2022-07-29T00:14:51;98571.03;;;19.82;76.23
16544;BME280;8384;47.996;7.786;2022-07-29T00:17:16;98567.63;;;19.85;75.67
16544;BME280;8384;47.996;7.786;2022-07-29T00:19:42;98542.81;;;19.62;76.11
16544;BME280;8384;47.996;7.786;2022-07-29T00:22:07;98571.19;;;19.77;76.09
16544;BME280;8384;47.996;7.786;2022-07-29T00:24:32;98521.78;;;19.53;75.73
16544;BME280;8384;47.996;7.786;2022-07-29T00:26:57;98570.22;;;19.82;75.65
16544;BME280;8384;47.996;7.786;2022-07-29T00:29:23;98568.59;;;19.72;76.23
16544;BME280;8384;47.996;7.786;2022-07-29T00:31:48;98571.53;;;19.67;76.42
16544;BME280;8384;47.996;7.786;2022-07-29T00:34:14;98544.94;;;19.57;75.67
16544;BME280;8384;47.996;7.786;2022-07-29T00:36:58;98541.03;;;19.58;75.78
16544;BME280;8384;47.996;7.786;2022-07-29T00:39:23;98543.81;;;19.58;75.79
16544;BME280;8384;47.996;7.786;2022-07-29T00:41:49;98543.81;;;19.49;76.12
16544;BME280;8384;47.996;7.786;2022-07-29T00:44:15;98552.94;;;19.49;76.56
16544;BME280;8384;47.996;7.786;2022-07-29T00:46:40;98556.19;;;19.52;76.28
16544;BME280;8384;47.996;7.786;2022-07-29T00:49:06;98555.03;;;19.61;75.83
16544;BME280;8384;47.996;7.786;2022-07-29T00:51:36;98558.81;;;19.66;75.42
16544;BME280;8384;47.996;7.786;2022-07-29T00:54:03;98557.81;;;19.61;75.58
16544;BME280;8384;47.996;7.786;2022-07-29T00:56:30;98555.19;;;19.47;76.09
16544;BME280;8384;47.996;7.786;2022-07-29T00:58:56;98556.84;;;19.48;75.95
16544;BME280;8384;47.996;7.786;2022-07-29T01:01:22;98556.69;;;19.45;75.87
16544;BME280;8384;47.996;7.786;2022-07-29T01:03:47;98550.66;;;19.43;75.89
16544;BME280;8384;47.996;7.786;2022-07-29T01:06:14;98548.22;;;19.41;75.92
16544;BME280;8384;47.996;7.786;2022-07-29T01:08:40;98536.13;;;19.28;75.86
16544;BME280;8384;47.996;7.786;2022-07-29T01:11:06;98551.63;;;19.38;75.83
16544;BME280;8384;47.996;7.786;2022-07-29T01:13:32;98558.47;;;19.32;75.80
16544;BME280;8384;47.996;7.786;2022-07-29T01:16:07;98552.13;;;19.31;75.75
16544;BME280;8384;47.996;7.786;2022-07-29T01:18:39;98550.16;;;19.41;75.27
16544;BME280;8384;47.996;7.786;2022-07-29T01:26:49;98524.72;;;19.21;74.95
16544;BME280;8384;47.996;7.786;2022-07-29T01:29:29;98550.31;;;19.36;74.50
16544;BME280;8384;47.996;7.786;2022-07-29T01:32:03;98545.91;;;19.26;74.96
16544;BME280;8384;47.996;7.786;2022-07-29T01:34:37;98540.53;;;19.29;74.66
16544;BME280;8384;47.996;7.786;2022-07-29T01:37:20;98543.13;;;19.26;74.54
16544;BME280;8384;47.996;7.786;2022-07-29T01:39:49;98547.69;;;19.22;74.48
16544;BME280;8384;47.996;7.786;2022-07-29T01:47:43;98544.25;;;19.25;74.69
16544;BME280;8384;47.996;7.786;2022-07-29T01:50:12;98540.69;;;19.15;74.87
16544;BME280;8384;47.996;7.786;2022-07-29T01:52:51;98548.50;;;19.05;75.29
16544;BME280;8384;47.996;7.786;2022-07-29T01:55:19;98543.13;;;19.08;75.43
16544;BME280;8384;47.996;7.786;2022-07-29T01:57:48;98548.16;;;19.15;75.06
16544;BME280;8384;47.996;7.786;2022-07-29T02:00:14;98553.84;;;19.10;75.23
16544;BME280;8384;47.996;7.786;2022-07-29T02:02:42;98553.19;;;19.04;75.16
16544;BME280;8384;47.996;7.786;2022-07-29T02:05:10;98549.88;;;18.93;75.53
16544;BME280;8384;47.996;7.786;2022-07-29T02:07:38;98543.69;;;18.87;75.52
16544;BME280;8384;47.996;7.786;2022-07-29T02:10:06;98552.06;;;19.05;74.41
16544;BME280;8384;47.996;7.786;2022-07-29T02:12:33;98545.53;;;19.01;74.47
16544;BME280;8384;47.996;7.786;2022-07-29T02:15:02;98555.19;;;19.12;74.29
16544;BME280;8384;47.996;7.786;2022-07-29T02:17:52;98561.22;;;19.14;74.18
16544;BME280;8384;47.996;7.786;2022-07-29T02:20:19;98552.06;;;19.05;74.09
16544;BME280;8384;47.996;7.786;2022-07-29T02:22:45;98560.53;;;19.09;74.23
16544;BME280;8384;47.996;7.786;2022-07-29T02:25:12;98562.97;;;19.01;74.33
16544;BME280;8384;47.996;7.786;2022-07-29T02:27:39;98548.31;;;19.01;73.73
16544;BME280;8384;47.996;7.786;2022-07-29T02:30:07;98557.59;;;19.05;74.07
16544;BME280;8384;47.996;7.786;2022-07-29T02:32:35;98539.69;;;19.02;73.66
16544;BME280;8384;47.996;7.786;2022-07-29T02:35:03;98556.31;;;19.11;73.58
16544;BME280;8384;47.996;7.786;2022-07-29T02:37:29;98554.69;;;19.01;73.95
16544;BME280;8384;47.996;7.786;2022-07-29T02:39:57;98560.47;;;18.91;74.11
16544;BME280;8384;47.996;7.786;2022-07-29T02:42:23;98560.13;;;18.84;74.73
16544;BME280;8384;47.996;7.786;2022-07-29T02:44:51;98562.09;;;18.92;74.59
16544;BME280;8384;47.996;7.786;2022-07-29T02:47:44;98561.16;;;18.97;74.10
16544;BME280;8384;47.996;7.786;2022-07-29T02:50:15;98561.75;;;18.94;74.11
16544;BME280;8384;47.996;7.786;2022-07-29T02:53:02;98564.06;;;18.92;73.86
16544;BME280;8384;47.996;7.786;2022-07-29T02:55:33;98549.50;;;18.77;73.91
16544;BME280;8384;47.996;7.786;2022-07-29T02:58:09;98559.34;;;18.92;74.22
16544;BME280;8384;47.996;7.786;2022-07-29T03:00:37;98560.16;;;18.93;74.27
16544;BME280;8384;47.996;7.786;2022-07-29T03:03:08;98555.91;;;18.86;74.56
16544;BME280;8384;47.996;7.786;2022-07-29T03:05:34;98540.53;;;18.71;74.77
16544;BME280;8384;47.996;7.786;2022-07-29T03:08:04;98557.81;;;18.77;74.64
16544;BME280;8384;47.996;7.786;2022-07-29T03:10:31;98515.22;;;18.47;75.42
16544;BME280;8384;47.996;7.786;2022-07-29T03:12:57;98551.75;;;18.66;75.38
16544;BME280;8384;47.996;7.786;2022-07-29T03:15:23;98549.94;;;18.53;75.88
16544;BME280;8384;47.996;7.786;2022-07-29T03:17:49;98551.56;;;18.54;75.80
16544;BME280;8384;47.996;7.786;2022-07-29T03:20:16;98544.88;;;18.55;75.86
16544;BME280;8384;47.996;7.786;2022-07-29T03:22:43;98518.94;;;18.42;75.63
16544;BME280;8384;47.996;7.786;2022-07-29T03:25:12;98551.88;;;18.52;75.71
16544;BME280;8384;47.996;7.786;2022-07-29T03:27:38;98547.78;;;18.50;75.83
16544;BME280;8384;47.996;7.786;2022-07-29T03:30:04;98540.78;;;18.52;75.69
16544;BME280;8384;47.996;7.786;2022-07-29T03:32:30;98497.31;;;18.12;75.93
16544;BME280;8384;47.996;7.786;2022-07-29T03:34:55;98526.19;;;18.29;75.97
16544;BME280;8384;47.996;7.786;2022-07-29T03:37:20;98553.28;;;18.41;75.91
16544;BME280;8384;47.996;7.786;2022-07-29T03:39:46;98553.22;;;18.32;76.31
16544;BME280;8384;47.996;7.786;2022-07-29T03:42:15;98552.78;;;18.39;76.40
16544;BME280;8384;47.996;7.786;2022-07-29T03:44:43;98556.31;;;18.31;76.42
16544;BME280;8384;47.996;7.786;2022-07-29T03:47:10;98542.75;;;18.20;76.41
16544;BME280;8384;47.996;7.786;2022-07-29T03:49:36;98557.59;;;18.24;76.60
16544;BME280;8384;47.996;7.786;2022-07-29T03:52:03;98545.19;;;18.13;76.48
16544;BME280;8384;47.996;7.786;2022-07-29T03:54:29;98549.13;;;18.21;76.58
16544;BME280;8384;47.996;7.786;2022-07-29T03:56:55;98556.53;;;18.11;76.44
16544;BME280;8384;47.996;7.786;2022-07-29T03:59:22;98545.19;;;18.13;76.58
16544;BME280;8384;47.996;7.786;2022-07-29T04:01:48;98564.38;;;18.18;76.87
16544;BME280;8384;47.996;7.786;2022-07-29T04:04:14;98561.78;;;18.13;76.67
16544;BME280;8384;47.996;7.786;2022-07-29T04:06:41;98564.34;;;18.09;77.09
16544;BME280;8384;47.996;7.786;2022-07-29T04:09:07;98562.69;;;18.08;77.13
16544;BME280;8384;47.996;7.786;2022-07-29T04:11:33;98536.31;;;18.02;76.68
16544;BME280;8384;47.996;7.786;2022-07-29T04:13:59;98555.72;;;18.11;77.08
16544;BME280;8384;47.996;7.786;2022-07-29T04:16:24;98564.72;;;18.17;76.56
16544;BME280;8384;47.996;7.786;2022-07-29T04:18:49;98561.63;;;18.18;76.11
16544;BME280;8384;47.996;7.786;2022-07-29T04:21:15;98579.41;;;18.26;76.44
16544;BME280;8384;47.996;7.786;2022-07-29T04:23:40;98543.66;;;18.07;75.97
16544;BME280;8384;47.996;7.786;2022-07-29T04:26:06;98563.06;;;18.16;75.65
16544;BME280;8384;47.996;7.786;2022-07-29T04:28:34;98574.00;;;18.21;75.77
16544;BME280;8384;47.996;7.786;2022-07-29T04:30:59;98587.72;;;18.26;75.44
16544;BME280;8384;47.996;7.786;2022-07-29T04:33:25;98575.88;;;18.34;75.28
16544;BME280;8384;47.996;7.786;2022-07-29T04:35:50;98580.72;;;18.28;75.47
16544;BME280;8384;47.996;7.786;2022-07-29T04:38:15;98570.00;;;18.27;75.14
16544;BME280;8384;47.996;7.786;2022-07-29T04:40:40;98569.03;;;18.32;74.23
16544;BME280;8384;47.996;7.786;2022-07-29T04:43:06;98588.47;;;18.49;74.42
16544;BME280;8384;47.996;7.786;2022-07-29T04:45:31;98586.25;;;18.60;73.59
16544;BME280;8384;47.996;7.786;2022-07-29T04:47:56;98591.03;;;18.37;74.71
16544;BME280;8384;47.996;7.786;2022-07-29T04:50:22;98576.91;;;18.16;75.13
16544;BME280;8384;47.996;7.786;2022-07-29T04:52:47;98591.53;;;18.39;74.91
16544;BME280;8384;47.996;7.786;2022-07-29T04:55:12;98588.31;;;18.46;74.63
16544;BME280;8384;47.996;7.786;2022-07-29T04:57:38;98594.75;;;18.64;73.49
16544;BME280;8384;47.996;7.786;2022-07-29T05:00:05;98592.66;;;18.69;73.44
16544;BME280;8384;47.996;7.786;2022-07-29T05:02:30;98585.47;;;18.68;72.86
16544;BME280;8384;47.996;7.786;2022-07-29T05:04:56;98606.38;;;18.83;72.67
16544;BME280;8384;47.996;7.786;2022-07-29T05:07:21;98601.16;;;18.82;72.71
16544;BME280;8384;47.996;7.786;2022-07-29T05:09:46;98598.25;;;18.87;72.10
16544;BME280;8384;47.996;7.786;2022-07-29T05:12:12;98596.13;;;18.84;73.03
16544;BME280;8384;47.996;7.786;2022-07-29T05:14:37;98600.53;;;18.94;72.10
16544;BME280;8384;47.996;7.786;2022-07-29T05:17:02;98602.19;;;18.95;71.72
16544;BME280;8384;47.996;7.786;2022-07-29T05:19:27;98611.84;;;18.97;71.51
16544;BME280;8384;47.996;7.786;2022-07-29T05:21:53;98617.53;;;19.01;71.44
16544;BME280;8384;47.996;7.786;2022-07-29T05:24:18;98614.78;;;19.01;71.32
16544;BME280;8384;47.996;7.786;2022-07-29T05:26:43;98626.56;;;19.15;70.97
16544;BME280;8384;47.996;7.786;2022-07-29T05:29:09;98636.53;;;19.16;70.88
16544;BME280;8384;47.996;7.786;2022-07-29T05:31:34;98633.91;;;19.20;70.66
16544;BME280;8384;47.996;7.786;2022-07-29T05:33:59;98639.31;;;19.34;69.96
16544;BME280;8384;47.996;7.786;2022-07-29T05:36:25;98632.50;;;19.49;69.11
16544;BME280;8384;47.996;7.786;2022-07-29T05:38:50;98641.81;;;19.53;68.96
16544;BME280;8384;47.996;7.786;2022-07-29T05:41:18;98647.38;;;19.62;68.43
16544;BME280;8384;47.996;7.786;2022-07-29T05:43:43;98637.75;;;19.68;68.21
16544;BME280;8384;47.996;7.786;2022-07-29T05:46:09;98639.53;;;19.64;68.53
16544;BME280;8384;47.996;7.786;2022-07-29T05:48:34;98645.25;;;19.76;67.83
16544;BME280;8384;47.996;7.786;2022-07-29T05:51:00;98635.78;;;19.77;67.79
16544;BME280;8384;47.996;7.786;2022-07-29T05:53:25;98645.75;;;19.87;67.33
16544;BME280;8384;47.996;7.786;2022-07-29T05:55:50;98644.28;;;19.81;67.82
16544;BME280;8384;47.996;7.786;2022-07-29T05:58:17;98644.28;;;19.81;67.76
16544;BME280;8384;47.996;7.786;2022-07-29T06:00:42;98661.91;;;19.85;67.72
16544;BME280;8384;47.996;7.786;2022-07-29T06:03:07;98659.81;;;20.08;67.70
16544;BME280;8384;47.996;7.786;2022-07-29T06:05:32;98652.94;;;20.23;67.30
16544;BME280;8384;47.996;7.786;2022-07-29T06:07:58;98660.97;;;20.25;67.41
16544;BME280;8384;47.996;7.786;2022-07-29T06:10:23;98649.38;;;20.23;66.39
16544;BME280;8384;47.996;7.786;2022-07-29T06:12:49;98644.81;;;20.10;67.41
16544;BME280;8384;47.996;7.786;2022-07-29T06:15:15;98675.13;;;20.32;67.22
16544;BME280;8384;47.996;7.786;2022-07-29T06:17:41;98667.28;;;20.43;66.41
16544;BME280;8384;47.996;7.786;2022-07-29T06:20:07;98672.16;;;20.55;66.75
16544;BME280;8384;47.996;7.786;2022-07-29T06:22:32;98668.59;;;20.55;66.15
16544;BME280;8384;47.996;7.786;2022-07-29T06:24:57;98668.03;;;20.70;65.96
16544;BME280;8384;47.996;7.786;2022-07-29T06:27:22;98685.47;;;20.97;64.71
16544;BME280;8384;47.996;7.786;2022-07-29T06:29:48;98681.22;;;21.00;64.13
16544;BME280;8384;47.996;7.786;2022-07-29T06:32:13;98652.56;;;20.78;62.72
16544;BME280;8384;47.996;7.786;2022-07-29T06:34:38;98667.44;;;21.12;61.50
16544;BME280;8384;47.996;7.786;2022-07-29T06:37:07;98662.97;;;21.50;60.13
16544;BME280;8384;47.996;7.786;2022-07-29T06:39:35;98675.03;;;21.63;60.11
16544;BME280;8384;47.996;7.786;2022-07-29T06:42:01;98664.56;;;21.68;59.36
16544;BME280;8384;47.996;7.786;2022-07-29T06:44:26;98678.88;;;21.79;57.49
16544;BME280;8384;47.996;7.786;2022-07-29T06:46:51;98675.63;;;21.77;56.08
16544;BME280;8384;47.996;7.786;2022-07-29T06:49:18;98679.38;;;21.72;56.07
16544;BME280;8384;47.996;7.786;2022-07-29T06:51:43;98687.69;;;21.81;53.79
16544;BME280;8384;47.996;7.786;2022-07-29T06:54:08;98688.50;;;21.82;54.48
16544;BME280;8384;47.996;7.786;2022-07-29T06:56:34;98684.59;;;22.04;54.95
16544;BME280;8384;47.996;7.786;2022-07-29T06:59:03;98678.88;;;22.00;55.06
16544;BME280;8384;47.996;7.786;2022-07-29T07:01:28;98693.94;;;21.99;55.19
16544;BME280;8384;47.996;7.786;2022-07-29T07:03:53;98668.00;;;21.86;55.34
16544;BME280;8384;47.996;7.786;2022-07-29T07:06:19;98698.91;;;22.15;55.03
16544;BME280;8384;47.996;7.786;2022-07-29T07:08:44;98705.16;;;22.12;55.68
16544;BME280;8384;47.996;7.786;2022-07-29T07:11:09;98702.56;;;22.07;56.30
16544;BME280;8384;47.996;7.786;2022-07-29T07:13:35;98695.25;;;22.02;56.82
16544;BME280;8384;47.996;7.786;2022-07-29T07:16:01;98704.19;;;22.29;56.11
16544;BME280;8384;47.996;7.786;2022-07-29T07:18:27;98706.84;;;22.46;56.46
16544;BME280;8384;47.996;7.786;2022-07-29T07:20:53;98715.34;;;22.96;55.68
16544;BME280;8384;47.996;7.786;2022-07-29T07:23:18;98716.31;;;23.13;54.37
16544;BME280;8384;47.996;7.786;2022-07-29T07:25:43;98721.69;;;22.84;55.21
16544;BME280;8384;47.996;7.786;2022-07-29T07:28:09;98726.03;;;22.94;55.26
16544;BME280;8384;47.996;7.786;2022-07-29T07:30:34;98728.22;;;22.55;56.87
16544;BME280;8384;47.996;7.786;2022-07-29T07:33:00;98732.94;;;22.75;57.12
16544;BME280;8384;47.996;7.786;2022-07-29T07:35:25;98742.16;;;22.55;58.04
16544;BME280;8384;47.996;7.786;2022-07-29T07:37:53;98740.78;;;22.18;59.07
16544;BME280;8384;47.996;7.786;2022-07-29T07:40:18;98749.00;;;22.15;59.91
16544;BME280;8384;47.996;7.786;2022-07-29T07:42:43;98744.25;;;21.64;61.27
16544;BME280;8384;47.996;7.786;2022-07-29T07:45:09;98735.56;;;21.66;61.63
16544;BME280;8384;47.996;7.786;2022-07-29T07:47:38;98741.72;;;22.01;60.78
16544;BME280;8384;47.996;7.786;2022-07-29T07:50:05;98754.50;;;22.24;60.38
16544;BME280;8384;47.996;7.786;2022-07-29T07:52:31;98751.47;;;21.86;60.87
16544;BME280;8384;47.996;7.786;2022-07-29T07:54:56;98741.03;;;21.83;61.24
16544;BME280;8384;47.996;7.786;2022-07-29T07:57:21;98723.13;;;21.93;60.90
16544;BME280;8384;47.996;7.786;2022-07-29T07:59:47;98737.94;;;22.06;61.11
16544;BME280;8384;47.996;7.786;2022-07-29T08:02:12;98721.50;;;22.13;60.53
16544;BME280;8384;47.996;7.786;2022-07-29T08:04:37;98744.94;;;22.55;59.35
16544;BME280;8384;47.996;7.786;2022-07-29T08:07:05;98738.72;;;22.70;58.47
16544;BME280;8384;47.996;7.786;2022-07-29T08:09:30;98740.19;;;22.55;58.46
16544;BME280;8384;47.996;7.786;2022-07-29T08:11:57;98735.84;;;22.79;57.67
16544;BME280;8384;47.996;7.786;2022-07-29T08:14:23;98731.53;;;23.03;56.95
16544;BME280;8384;47.996;7.786;2022-07-29T08:16:48;98724.22;;;23.11;55.05
16544;BME280;8384;47.996;7.786;2022-07-29T08:19:14;98729.38;;;22.87;56.25
16544;BME280;8384;47.996;7.786;2022-07-29T08:21:39;98736.63;;;23.01;56.14
16544;BME280;8384;47.996;7.786;2022-07-29T08:24:05;98727.78;;;22.99;54.87
16544;BME280;8384;47.996;7.786;2022-07-29T08:26:50;98732.75;;;23.27;53.90
16544;BME280;8384;47.996;7.786;2022-07-29T08:29:15;98726.31;;;23.14;52.85
16544;BME280;8384;47.996;7.786;2022-07-29T08:31:41;98725.16;;;23.15;53.49
16544;BME280;8384;47.996;7.786;2022-07-29T08:34:06;98735.19;;;23.53;50.34
16544;BME280;8384;47.996;7.786;2022-07-29T08:36:32;98736.44;;;23.93;49.72
16544;BME280;8384;47.996;7.786;2022-07-29T08:38:58;98716.19;;;24.49;48.33
16544;BME280;8384;47.996;7.786;2022-07-29T08:41:24;98733.31;;;24.48;46.07
16544;BME280;8384;47.996;7.786;2022-07-29T08:43:50;98739.41;;;24.66;44.49
16544;BME280;8384;47.996;7.786;2022-07-29T08:46:16;98728.03;;;24.18;45.21
16544;BME280;8384;47.996;7.786;2022-07-29T08:48:42;98733.38;;;24.51;45.06
16544;BME280;8384;47.996;7.786;2022-07-29T08:51:08;98715.78;;;24.35;44.79
16544;BME280;8384;47.996;7.786;2022-07-29T08:53:37;98732.69;;;24.54;44.22
16544;BME280;8384;47.996;7.786;2022-07-29T08:56:06;98736.00;;;24.44;44.50
16544;BME280;8384;47.996;7.786;2022-07-29T08:58:33;98731.34;;;24.48;45.21
16544;BME280;8384;47.996;7.786;2022-07-29T09:01:01;98734.22;;;24.52;45.77
16544;BME280;8384;47.996;7.786;2022-07-29T09:03:30;98710.09;;;24.60;45.09
16544;BME280;8384;47.996;7.786;2022-07-29T09:05:58;98718.44;;;24.72;44.81
16544;BME280;8384;47.996;7.786;2022-07-29T09:08:23;98730.88;;;24.46;45.24
16544;BME280;8384;47.996;7.786;2022-07-29T09:10:49;98728.56;;;24.64;44.55
16544;BME280;8384;47.996;7.786;2022-07-29T09:13:14;98738.88;;;24.48;45.24
16544;BME280;8384;47.996;7.786;2022-07-29T09:15:40;98735.56;;;24.30;45.70
16544;BME280;8384;47.996;7.786;2022-07-29T09:18:05;98728.19;;;24.09;46.58
16544;BME280;8384;47.996;7.786;2022-07-29T09:20:30;98737.72;;;23.95;47.54
16544;BME280;8384;47.996;7.786;2022-07-29T09:23:14;98730.84;;;24.18;47.25
16544;BME280;8384;47.996;7.786;2022-07-29T09:25:40;98734.22;;;24.52;47.00
16544;BME280;8384;47.996;7.786;2022-07-29T09:28:07;98736.66;;;24.53;45.00
16544;BME280;8384;47.996;7.786;2022-07-29T09:30:33;98734.53;;;24.34;45.46
16544;BME280;8384;47.996;7.786;2022-07-29T09:33:02;98744.84;;;24.75;45.00
16544;BME280;8384;47.996;7.786;2022-07-29T09:35:31;98722.78;;;24.85;43.39
16544;BME280;8384;47.996;7.786;2022-07-29T09:37:56;98741.38;;;24.37;45.12
16544;BME280;8384;47.996;7.786;2022-07-29T09:40:27;98743.41;;;24.11;45.28
16544;BME280;8384;47.996;7.786;2022-07-29T09:42:53;98743.31;;;24.08;45.22
16544;BME280;8384;47.996;7.786;2022-07-29T09:45:32;98753.03;;;24.26;45.35
16544;BME280;8384;47.996;7.786;2022-07-29T09:47:59;98747.06;;;24.40;45.07
16544;BME280;8384;47.996;7.786;2022-07-29T09:50:41;98752.09;;;24.63;44.72
16544;BME280;8384;47.996;7.786;2022-07-29T09:53:07;98757.44;;;24.40;44.72
16544;BME280;8384;47.996;7.786;2022-07-29T09:55:46;98746.88;;;24.21;45.03
16544;BME280;8384;47.996;7.786;2022-07-29T09:58:19;98750.47;;;24.34;44.65
16544;BME280;8384;47.996;7.786;2022-07-29T10:00:46;98728.00;;;24.71;44.30
16544;BME280;8384;47.996;7.786;2022-07-29T10:03:13;98745.91;;;24.98;44.36
16544;BME280;8384;47.996;7.786;2022-07-29T10:05:38;98740.69;;;24.27;45.52
16544;BME280;8384;47.996;7.786;2022-07-29T10:08:04;98730.84;;;24.18;45.57
16544;BME280;8384;47.996;7.786;2022-07-29T10:10:32;98737.25;;;24.47;44.98
16544;BME280;8384;47.996;7.786;2022-07-29T10:13:03;98746.47;;;25.20;43.02
16544;BME280;8384;47.996;7.786;2022-07-29T10:15:31;98744.56;;;25.08;42.89
16544;BME280;8384;47.996;7.786;2022-07-29T10:18:02;98727.78;;;25.40;43.11
16544;BME280;8384;47.996;7.786;2022-07-29T10:20:27;98713.09;;;25.27;43.15
16544;BME280;8384;47.996;7.786;2022-07-29T10:22:54;98739.88;;;25.12;43.31
16544;BME280;8384;47.996;7.786;2022-07-29T10:25:20;98733.69;;;25.51;42.52
16544;BME280;8384;47.996;7.786;2022-07-29T10:27:46;98736.00;;;25.01;43.33
16544;BME280;8384;47.996;7.786;2022-07-29T10:30:14;98731.97;;;25.63;42.68
16544;BME280;8384;47.996;7.786;2022-07-29T10:33:15;98736.91;;;26.05;42.54
16544;BME280;8384;47.996;7.786;2022-07-29T10:44:01;98747.50;;;25.96;41.96
16544;BME280;8384;47.996;7.786;2022-07-29T10:46:28;98734.66;;;25.59;42.36
16544;BME280;8384;47.996;7.786;2022-07-29T10:52:08;98749.97;;;26.72;40.59
16544;BME280;8384;47.996;7.786;2022-07-29T10:59:52;98752.22;;;27.49;36.69
16544;BME280;8384;47.996;7.786;2022-07-29T11:05:05;98753.41;;;27.48;37.98
16544;BME280;8384;47.996;7.786;2022-07-29T11:07:32;98748.41;;;26.75;39.62
16544;BME280;8384;47.996;7.786;2022-07-29T11:15:03;98754.59;;;25.89;39.75
16544;BME280;8384;47.996;7.786;2022-07-29T11:20:40;98762.00;;;26.33;38.91
16544;BME280;8384;47.996;7.786;2022-07-29T11:31:33;98749.75;;;26.61;39.84
16544;BME280;8384;47.996;7.786;2022-07-29T11:34:25;98752.09;;;26.99;39.37
16544;BME280;8384;47.996;7.786;2022-07-29T11:40:08;98742.81;;;27.64;38.24
16544;BME280;8384;47.996;7.786;2022-07-29T11:47:21;98741.97;;;25.80;42.05
16544;BME280;8384;47.996;7.786;2022-07-29T11:49:47;98755.50;;;26.29;41.12
16544;BME280;8384;47.996;7.786;2022-07-29T11:52:12;98739.31;;;25.87;41.54
16544;BME280;8384;47.996;7.786;2022-07-29T11:54:39;98759.47;;;26.48;40.42
16544;BME280;8384;47.996;7.786;2022-07-29T11:57:07;98757.03;;;25.75;41.42
16544;BME280;8384;47.996;7.786;2022-07-29T11:59:38;98752.72;;;25.78;41.40
16544;BME280;8384;47.996;7.786;2022-07-29T12:02:04;98753.78;;;25.57;41.66
16544;BME280;8384;47.996;7.786;2022-07-29T12:04:29;98764.06;;;25.85;41.92
16544;BME280;8384;47.996;7.786;2022-07-29T12:06:55;98753.34;;;25.71;41.80
16544;BME280;8384;47.996;7.786;2022-07-29T12:09:22;98751.19;;;25.64;42.35
16544;BME280;8384;47.996;7.786;2022-07-29T12:11:56;98746.13;;;25.38;42.37
16544;BME280;8384;47.996;7.786;2022-07-29T12:14:32;98769.34;;;26.06;41.48
16544;BME280;8384;47.996;7.786;2022-07-29T12:16:59;98769.50;;;25.94;41.95
16544;BME280;8384;47.996;7.786;2022-07-29T12:19:27;98762.44;;;25.84;42.00
16544;BME280;8384;47.996;7.786;2022-07-29T12:21:54;98763.91;;;25.78;42.19
16544;BME280;8384;47.996;7.786;2022-07-29T12:24:20;98754.59;;;25.73;42.35
16544;BME280;8384;47.996;7.786;2022-07-29T12:26:56;98761.22;;;26.01;42.30
16544;BME280;8384;47.996;7.786;2022-07-29T12:29:22;98760.16;;;26.41;40.78
16544;BME280;8384;47.996;7.786;2022-07-29T12:31:52;98741.91;;;26.71;39.95
16544;BME280;8384;47.996;7.786;2022-07-29T12:34:20;98777.09;;;26.29;41.03
16544;BME280;8384;47.996;7.786;2022-07-29T12:36:47;98771.81;;;26.43;40.95
16544;BME280;8384;47.996;7.786;2022-07-29T12:39:13;98767.38;;;25.55;41.45
16544;BME280;8384;47.996;7.786;2022-07-29T12:41:40;98777.34;;;25.72;41.46
16544;BME280;8384;47.996;7.786;2022-07-29T12:44:05;98747.03;;;25.58;41.67
16544;BME280;8384;47.996;7.786;2022-07-29T12:46:30;98749.22;;;25.65;41.50
16544;BME280;8384;47.996;7.786;2022-07-29T12:48:56;98765.13;;;25.96;41.80
16544;BME280;8384;47.996;7.786;2022-07-29T12:51:33;98763.13;;;26.13;41.82
16544;BME280;8384;47.996;7.786;2022-07-29T12:56:32;98766.91;;;26.20;38.15
16544;BME280;8384;47.996;7.786;2022-07-29T12:58:57;98763.47;;;26.11;38.94
16544;BME280;8384;47.996;7.786;2022-07-29T13:01:23;98758.75;;;26.31;39.14
16544;BME280;8384;47.996;7.786;2022-07-29T13:03:53;98759.53;;;25.96;39.92
16544;BME280;8384;47.996;7.786;2022-07-29T13:09:16;98759.75;;;25.71;41.71
16544;BME280;8384;47.996;7.786;2022-07-29T13:11:46;98756.75;;;25.80;41.73
16544;BME280;8384;47.996;7.786;2022-07-29T13:14:14;98756.56;;;25.89;41.33
16544;BME280;8384;47.996;7.786;2022-07-29T13:19:40;98749.38;;;25.40;42.17
16544;BME280;8384;47.996;7.786;2022-07-29T13:22:07;98753.97;;;25.16;42.87
16544;BME280;8384;47.996;7.786;2022-07-29T13:24:33;98761.84;;;25.58;42.11
16544;BME280;8384;47.996;7.786;2022-07-29T13:26:59;98740.66;;;24.81;43.28
16544;BME280;8384;47.996;7.786;2022-07-29T13:29:24;98737.72;;;25.06;42.71
16544;BME280;8384;47.996;7.786;2022-07-29T13:31:51;98743.69;;;25.52;41.12
16544;BME280;8384;47.996;7.786;2022-07-29T13:34:17;98747.22;;;26.01;40.16
16544;BME280;8384;47.996;7.786;2022-07-29T13:36:44;98764.97;;;26.25;39.16
16544;BME280;8384;47.996;7.786;2022-07-29T13:39:09;98756.91;;;26.03;39.86
16544;BME280;8384;47.996;7.786;2022-07-29T13:41:36;98775.19;;;26.33;40.05
16544;BME280;8384;47.996;7.786;2022-07-29T13:44:01;98760.34;;;25.97;40.68
16544;BME280;8384;47.996;7.786;2022-07-29T13:46:27;98761.72;;;26.23;40.22
16544;BME280;8384;47.996;7.786;2022-07-29T13:48:52;98763.16;;;26.32;40.15
16544;BME280;8384;47.996;7.786;2022-07-29T13:51:17;98747.50;;;25.96;41.62
16544;BME280;8384;47.996;7.786;2022-07-29T13:53:42;98752.97;;;25.88;42.30
16544;BME280;8384;47.996;7.786;2022-07-29T13:56:08;98757.59;;;25.81;42.69
16544;BME280;8384;47.996;7.786;2022-07-29T13:58:33;98760.88;;;25.51;44.04
16544;BME280;8384;47.996;7.786;2022-07-29T14:00:59;98748.31;;;25.44;43.67
16544;BME280;8384;47.996;7.786;2022-07-29T14:03:25;98755.25;;;24.62;45.90
16544;BME280;8384;47.996;7.786;2022-07-29T14:05:50;98758.50;;;24.64;46.30
16544;BME280;8384;47.996;7.786;2022-07-29T14:08:16;98761.00;;;25.10;45.59
16544;BME280;8384;47.996;7.786;2022-07-29T14:10:41;98764.56;;;24.94;45.65
16544;BME280;8384;47.996;7.786;2022-07-29T14:13:06;98770.56;;;25.09;43.33